createdAt,value
2023-02-04T00:01:36.644Z,31.95
2023-02-04T00:04:43.162Z,26.50
2023-02-04T00:07:48.817Z,25.82
2023-02-04T00:10:54.066Z,25.02
2023-02-04T00:13:59.719Z,25.08
2023-02-04T00:16:59.310Z,27.87
2023-02-04T00:19:58.321Z,23.42
2023-02-04T00:23:04.531Z,22.98
2023-02-04T00:26:10.667Z,22.05
2023-02-04T00:29:16.792Z,20.37
2023-02-04T00:32:23.166Z,17.42
2023-02-04T00:35:27.915Z,17.02
2023-02-04T00:38:34.426Z,15.15
2023-02-04T00:41:40.153Z,12.25
2023-02-04T00:44:46.092Z,14.93
2023-02-04T00:47:51.563Z,15.53
2023-02-04T00:51:01.832Z,18.02
2023-02-04T00:54:07.830Z,16.47
2023-02-04T00:57:14.501Z,16.67
2023-02-04T01:14:05.815Z,15.05
2023-02-04T01:21:21.843Z,15.78
2023-02-04T01:24:27.927Z,14.23
2023-02-04T01:27:51.415Z,19.77
2023-02-04T01:30:56.895Z,23.02
2023-02-04T01:34:03.356Z,24.27
2023-02-04T01:37:08.457Z,26.97
2023-02-04T01:40:13.607Z,23.95
2023-02-04T01:43:19.403Z,35.30
2023-02-04T01:46:25.875Z,24.35
2023-02-04T01:49:32.099Z,27.65
2023-02-04T01:52:37.476Z,28.27
2023-02-04T01:55:45.677Z,24.82
2023-02-04T01:58:52.454Z,24.12
2023-02-04T02:02:01.609Z,35.05
2023-02-04T02:05:07.041Z,33.95
2023-02-04T02:08:15.810Z,32.93
2023-02-04T02:11:20.672Z,32.67
2023-02-04T02:14:27.318Z,28.55
2023-02-04T02:17:34.369Z,35.78
2023-02-04T02:20:40.841Z,36.33
2023-02-04T02:24:09.024Z,30.95
2023-02-04T02:27:17.225Z,24.07
2023-02-04T02:30:24.660Z,36.60
2023-02-04T02:33:33.328Z,58.20
2023-02-04T02:36:38.689Z,54.53
2023-02-04T02:39:44.604Z,38.35
2023-02-04T02:42:50.327Z,34.20
2023-02-04T02:45:55.835Z,28.52
2023-02-04T02:49:04.866Z,28.80
2023-02-04T02:52:11.730Z,28.30
2023-02-04T02:55:17.183Z,27.37
2023-02-04T02:58:44.828Z,21.52
2023-02-04T03:01:50.512Z,17.45
2023-02-04T03:05:00.102Z,8.90
2023-02-04T03:08:06.735Z,4.85
2023-02-04T03:11:11.806Z,5.75
2023-02-04T03:14:19.381Z,5.25
2023-02-04T03:17:25.676Z,5.47
2023-02-04T03:20:32.099Z,3.12
2023-02-04T03:23:37.249Z,3.50
2023-02-04T03:26:37.197Z,3.33
2023-02-04T03:29:44.608Z,3.60
2023-02-04T03:32:51.505Z,3.33
2023-02-04T03:35:58.829Z,4.53
2023-02-04T03:39:05.570Z,5.20
2023-02-04T03:42:10.814Z,4.42
2023-02-04T03:45:16.281Z,4.37
2023-02-04T03:48:22.181Z,5.25
2023-02-04T03:51:28.599Z,5.50
2023-02-04T03:54:35.066Z,4.15
2023-02-04T03:57:40.937Z,8.43
2023-02-04T04:00:47.187Z,4.20
2023-02-04T04:03:52.937Z,4.60
2023-02-04T04:06:58.373Z,4.45
2023-02-04T04:10:04.337Z,3.60
2023-02-04T04:13:11.056Z,4.90
2023-02-04T04:16:17.271Z,7.15
2023-02-04T04:19:22.282Z,5.60
2023-02-04T04:22:28.345Z,8.53
2023-02-04T04:25:34.350Z,7.37
2023-02-04T04:28:40.057Z,6.85
2023-02-04T04:31:45.717Z,7.55
2023-02-04T04:34:51.556Z,6.50
2023-02-04T04:37:57.375Z,6.53
2023-02-04T04:41:03.005Z,7.58
2023-02-04T04:44:08.329Z,8.23
2023-02-04T04:47:14.473Z,10.63
2023-02-04T04:50:20.181Z,10.45
2023-02-04T04:53:26.083Z,10.05
2023-02-04T04:56:31.871Z,12.15
2023-02-04T04:59:37.512Z,13.05
2023-02-04T05:02:43.156Z,12.63
2023-02-04T05:05:47.763Z,13.28
2023-02-04T05:08:53.605Z,11.25
2023-02-04T05:12:00.712Z,14.35
2023-02-04T05:15:06.005Z,12.50
2023-02-04T05:18:11.221Z,16.17
2023-02-04T05:21:17.781Z,17.87
2023-02-04T05:24:23.639Z,11.73
2023-02-04T05:27:29.700Z,14.23
2023-02-04T05:30:35.933Z,15.88
2023-02-04T05:33:42.460Z,15.15
2023-02-04T05:36:47.232Z,14.38
2023-02-04T05:39:52.480Z,12.60
2023-02-04T05:42:59.472Z,13.32
2023-02-04T05:46:06.946Z,16.27
2023-02-04T05:49:14.456Z,16.60
2023-02-04T05:52:20.794Z,12.68
2023-02-04T05:55:26.888Z,12.68
2023-02-04T05:58:32.767Z,14.53
2023-02-04T06:01:38.414Z,17.12
2023-02-04T06:04:45.011Z,16.85
2023-02-04T06:07:51.473Z,15.55
2023-02-04T06:10:56.780Z,17.90
2023-02-04T06:14:03.285Z,18.50
2023-02-04T06:17:08.130Z,16.42
2023-02-04T06:20:13.785Z,28.98
2023-02-04T06:23:20.206Z,37.73
2023-02-04T06:26:25.811Z,31.55
2023-02-04T06:29:31.241Z,34.50
2023-02-04T06:32:30.098Z,36.08
2023-02-04T06:35:36.889Z,27.17
2023-02-04T06:38:42.535Z,37.50
2023-02-04T06:41:48.698Z,38.55
2023-02-04T06:44:53.904Z,32.38
2023-02-04T06:47:59.928Z,43.50
2023-02-04T06:50:59.463Z,35.05
2023-02-04T06:53:54.231Z,37.45
2023-02-04T06:57:01.039Z,37.20
2023-02-04T07:00:07.616Z,36.05
2023-02-04T07:03:14.339Z,38.88
2023-02-04T07:06:22.158Z,35.48
2023-02-04T07:09:28.211Z,38.38
2023-02-04T07:12:33.032Z,38.02
2023-02-04T07:15:38.766Z,39.58
2023-02-04T07:18:45.057Z,37.55
2023-02-04T07:21:51.188Z,28.42
2023-02-04T07:24:56.368Z,31.00
2023-02-04T07:28:03.484Z,30.60
2023-02-04T07:31:09.503Z,30.00
2023-02-04T07:34:15.227Z,30.88
2023-02-04T07:37:22.006Z,31.05
2023-02-04T07:40:29.113Z,32.85
2023-02-04T07:43:35.932Z,29.40
2023-02-04T07:46:40.776Z,29.60
2023-02-04T07:49:46.267Z,30.25
2023-02-04T07:52:51.504Z,26.68
2023-02-04T07:55:58.443Z,25.52
2023-02-04T07:59:04.152Z,24.18
2023-02-04T08:02:09.833Z,23.30
2023-02-04T08:05:16.195Z,24.65
2023-02-04T08:08:22.148Z,24.87
2023-02-04T08:11:27.219Z,25.00
2023-02-04T08:14:32.835Z,24.32
2023-02-04T08:17:38.686Z,24.10
2023-02-04T08:20:44.032Z,19.45
2023-02-04T08:23:50.734Z,18.40
2023-02-04T08:26:56.327Z,21.80
2023-02-04T08:30:02.324Z,19.82
2023-02-04T08:33:08.541Z,23.22
2023-02-04T08:36:14.394Z,21.68
2023-02-04T08:39:20.960Z,17.80
2023-02-04T08:42:25.444Z,17.30
2023-02-04T08:45:31.545Z,15.48
2023-02-04T08:48:38.138Z,13.68
2023-02-04T08:51:44.403Z,12.35
2023-02-04T08:54:50.327Z,15.15
2023-02-04T08:57:56.082Z,12.58
2023-02-04T09:01:01.927Z,14.23
2023-02-04T09:04:08.186Z,10.93
2023-02-04T09:07:14.233Z,9.68
2023-02-04T09:10:21.522Z,10.98
2023-02-04T09:13:26.613Z,12.05
2023-02-04T09:16:32.175Z,10.55
2023-02-04T09:19:37.564Z,11.15
2023-02-04T09:22:44.313Z,12.30
2023-02-04T09:25:49.565Z,9.40
2023-02-04T09:28:56.141Z,10.15
2023-02-04T09:32:01.832Z,7.85
2023-02-04T09:35:07.548Z,10.38
2023-02-04T09:38:12.585Z,10.93
2023-02-04T09:41:23.167Z,9.43
2023-02-04T09:47:36.712Z,10.30
2023-02-04T09:50:42.525Z,8.58
2023-02-04T09:53:48.204Z,10.15
2023-02-04T09:56:55.019Z,11.20
2023-02-04T10:00:04.458Z,10.72
2023-02-04T10:03:14.348Z,10.38
2023-02-04T10:09:27.986Z,9.35
2023-02-04T10:12:34.704Z,9.50
2023-02-04T10:15:39.734Z,9.28
2023-02-04T10:18:47.157Z,7.58
2023-02-04T10:21:53.608Z,8.33
2023-02-04T10:25:00.090Z,7.55
2023-02-04T10:28:15.151Z,8.25
2023-02-04T10:31:44.305Z,6.80
2023-02-04T10:34:52.776Z,7.50
2023-02-04T10:37:59.368Z,7.17
2023-02-04T10:41:19.790Z,8.25
2023-02-04T10:44:30.206Z,6.72
2023-02-04T10:47:31.991Z,6.75
2023-02-04T10:50:33.926Z,7.45
2023-02-04T10:53:51.026Z,7.60
2023-02-04T10:56:56.924Z,6.00
2023-02-04T11:00:06.112Z,7.42
2023-02-04T11:03:15.627Z,11.12
2023-02-04T11:09:32.511Z,8.88
2023-02-04T11:12:58.212Z,11.95
2023-02-04T11:16:07.279Z,7.42
2023-02-04T11:19:14.669Z,9.25
2023-02-04T11:22:37.402Z,7.97
2023-02-04T11:25:51.347Z,5.37
2023-02-04T11:29:16.132Z,6.85
2023-02-04T11:32:49.781Z,7.87
2023-02-04T11:35:56.406Z,8.38
2023-02-04T11:39:03.284Z,5.72
2023-02-04T11:42:08.766Z,5.85
2023-02-04T11:45:19.281Z,5.72
2023-02-04T11:48:34.738Z,4.78
2023-02-04T11:51:47.913Z,5.20
2023-02-04T11:54:52.955Z,4.28
2023-02-04T11:57:59.571Z,6.03
2023-02-04T12:01:05.062Z,4.40
2023-02-04T12:04:20.174Z,5.47
2023-02-04T12:07:27.202Z,5.30
2023-02-04T12:10:39.749Z,4.83
2023-02-04T12:13:47.493Z,4.35
2023-02-04T12:17:05.619Z,6.40
2023-02-04T12:20:11.373Z,4.60
2023-02-04T12:23:17.658Z,6.30
2023-02-04T12:26:24.200Z,4.03
2023-02-04T12:29:29.671Z,6.65
2023-02-04T12:32:36.066Z,4.92
2023-02-04T12:35:42.110Z,4.87
2023-02-04T12:38:48.498Z,4.83
2023-02-04T12:41:54.569Z,4.55
2023-02-04T12:45:00.794Z,4.25
2023-02-04T12:48:06.997Z,5.42
2023-02-04T12:51:12.826Z,4.22
2023-02-04T12:54:19.814Z,4.42
2023-02-04T12:57:27.120Z,4.05
2023-02-04T13:00:34.850Z,4.85
2023-02-04T13:03:42.191Z,4.75
2023-02-04T13:06:47.674Z,4.67
2023-02-04T13:09:53.167Z,4.20
2023-02-04T13:12:59.922Z,4.42
2023-02-04T13:16:06.463Z,5.78
2023-02-04T13:19:05.038Z,5.28
2023-02-04T13:21:51.301Z,6.60
2023-02-04T13:24:44.372Z,5.78
2023-02-04T13:27:39.113Z,5.70
2023-02-04T13:30:44.854Z,6.45
2023-02-04T13:33:50.461Z,5.58
2023-02-04T13:36:56.507Z,5.42
2023-02-04T13:40:02.895Z,8.98
2023-02-04T13:43:09.483Z,13.20
2023-02-04T13:46:18.015Z,7.08
2023-02-04T13:49:24.835Z,5.97
2023-02-04T13:52:30.819Z,7.62
2023-02-04T13:55:35.587Z,7.10
2023-02-04T13:58:41.808Z,10.18
2023-02-04T14:01:48.327Z,8.23
2023-02-04T14:04:53.988Z,5.85
2023-02-04T14:08:00.466Z,5.37
2023-02-04T14:11:06.791Z,7.78
2023-02-04T14:14:11.785Z,6.67
2023-02-04T14:17:17.151Z,7.05
2023-02-04T14:20:24.009Z,6.10
2023-02-04T14:23:30.140Z,5.17
2023-02-04T14:26:36.607Z,6.30
2023-02-04T14:29:43.421Z,5.42
2023-02-04T14:32:49.766Z,6.05
2023-02-04T14:35:55.248Z,8.13
2023-02-04T14:39:01.156Z,5.78
2023-02-04T14:42:07.443Z,6.08
2023-02-04T14:45:15.078Z,5.28
2023-02-04T14:48:22.730Z,6.22
2023-02-04T14:51:28.097Z,6.35
2023-02-04T14:54:33.935Z,6.60
2023-02-04T14:57:40.859Z,6.55
2023-02-04T15:00:46.743Z,8.50
2023-02-04T15:03:46.648Z,8.78
2023-02-04T15:09:51.871Z,10.60
2023-02-04T15:12:57.940Z,13.38
2023-02-04T15:16:05.503Z,11.55
2023-02-04T15:19:11.642Z,15.38
2023-02-04T15:22:16.514Z,9.93
2023-02-04T15:25:21.816Z,10.53
2023-02-04T15:28:27.560Z,10.50
2023-02-04T15:31:34.198Z,14.93
2023-02-04T15:34:40.525Z,11.00
2023-02-04T15:37:46.394Z,11.22
2023-02-04T15:40:53.123Z,11.78
2023-02-04T15:43:58.956Z,12.50
2023-02-04T15:47:06.431Z,11.20
2023-02-04T15:50:15.460Z,13.05
2023-02-04T15:53:20.937Z,12.78
2023-02-04T15:56:26.163Z,10.70
2023-02-04T15:59:31.460Z,10.38
2023-02-04T16:02:36.907Z,12.88
2023-02-04T16:05:42.836Z,13.83
2023-02-04T16:08:49.511Z,17.55
2023-02-04T16:11:56.418Z,16.48
2023-02-04T16:15:01.928Z,13.08
2023-02-04T16:18:02.505Z,11.45
2023-02-04T16:20:55.084Z,10.13
2023-02-04T16:24:01.173Z,9.43
2023-02-04T16:27:07.636Z,9.10
2023-02-04T16:30:12.719Z,10.08
2023-02-04T16:33:19.188Z,9.18
2023-02-04T16:36:20.881Z,9.48
2023-02-04T16:39:07.792Z,9.20
2023-02-04T16:42:00.585Z,7.42
2023-02-04T16:44:46.357Z,8.13
2023-02-04T16:47:38.822Z,7.67
2023-02-04T16:50:26.051Z,10.82
2023-02-04T16:53:20.724Z,8.55
2023-02-04T16:56:05.842Z,7.53
2023-02-04T16:58:58.348Z,11.38
2023-02-04T17:01:52.812Z,9.08
2023-02-04T17:05:00.024Z,10.30
2023-02-04T17:08:06.401Z,10.38
2023-02-04T17:11:23.826Z,12.93
2023-02-04T17:14:30.699Z,12.20
2023-02-04T17:17:36.694Z,12.00
2023-02-04T17:20:42.591Z,13.62
2023-02-04T17:23:49.060Z,13.60
2023-02-04T17:26:54.594Z,12.07
2023-02-04T17:29:59.643Z,14.43
2023-02-04T17:33:05.012Z,15.85
2023-02-04T17:36:10.128Z,14.68
2023-02-04T17:39:15.448Z,15.38
2023-02-04T17:42:21.198Z,14.90
2023-02-04T17:45:27.689Z,14.45
2023-02-04T17:48:33.199Z,13.70
2023-02-04T17:51:39.534Z,15.93
2023-02-04T17:54:45.234Z,13.95
2023-02-04T17:57:51.505Z,13.25
2023-02-04T18:00:59.532Z,37.15
2023-02-04T18:04:06.375Z,40.30
2023-02-04T18:07:11.278Z,23.12
2023-02-04T18:10:24.455Z,21.90
2023-02-04T18:13:45.954Z,24.30
2023-02-04T18:16:51.156Z,21.77
2023-02-04T18:19:57.236Z,22.20
2023-02-04T18:23:08.944Z,21.93
2023-02-04T18:26:27.970Z,21.02
2023-02-04T18:29:47.918Z,20.60
2023-02-04T18:36:03.612Z,19.23
2023-02-04T18:39:09.500Z,26.48
2023-02-04T18:42:16.369Z,19.27
2023-02-04T18:45:45.033Z,18.45
2023-02-04T18:49:15.275Z,17.25
2023-02-04T18:52:34.206Z,19.23
2023-02-04T18:55:49.952Z,14.68
2023-02-04T18:58:58.515Z,16.87
2023-02-04T19:02:04.840Z,10.55
2023-02-04T19:05:13.816Z,17.37
2023-02-04T19:08:28.959Z,18.02
2023-02-04T19:12:00.353Z,17.62
2023-02-04T19:15:06.740Z,16.52
2023-02-04T19:18:13.670Z,20.20
2023-02-04T19:21:40.060Z,14.45
2023-02-04T19:24:45.105Z,18.15
2023-02-04T19:27:51.000Z,14.93
2023-02-04T19:30:57.135Z,15.30
2023-02-04T19:34:03.175Z,15.00
2023-02-04T19:37:10.451Z,17.25
2023-02-04T19:40:16.276Z,16.17
2023-02-04T19:43:50.582Z,16.95
2023-02-04T19:46:58.365Z,17.82
2023-02-04T19:50:03.299Z,16.62
2023-02-04T19:53:32.261Z,17.52
2023-02-04T19:56:53.264Z,17.47
2023-02-04T19:59:59.202Z,17.30
2023-02-04T20:03:08.032Z,16.55
2023-02-04T20:06:39.893Z,17.25
2023-02-04T20:09:46.371Z,15.00
2023-02-04T20:12:53.489Z,16.00
2023-02-04T20:15:59.108Z,13.90
2023-02-04T20:19:07.159Z,18.95
2023-02-04T20:22:36.972Z,16.60
2023-02-04T20:29:04.542Z,15.80
2023-02-04T20:32:10.697Z,19.37
2023-02-04T20:35:30.498Z,18.57
2023-02-04T20:38:35.807Z,16.30
2023-02-04T20:41:41.410Z,18.87
2023-02-04T20:44:54.119Z,14.85
2023-02-04T20:47:59.545Z,15.80
2023-02-04T20:51:08.164Z,15.98
2023-02-04T20:54:15.997Z,17.37
2023-02-04T20:57:26.798Z,17.87
2023-02-04T21:00:48.863Z,16.82
2023-02-04T21:03:54.627Z,14.58
2023-02-04T21:06:59.506Z,17.80
2023-02-04T21:10:05.503Z,14.95
2023-02-04T21:13:03.617Z,16.40
2023-02-04T21:16:10.146Z,15.00
2023-02-04T21:19:17.430Z,19.62
2023-02-04T21:22:23.357Z,17.30
2023-02-04T21:25:29.031Z,19.65
2023-02-04T21:28:35.271Z,17.55
2023-02-04T21:31:40.584Z,16.90
2023-02-04T21:34:46.125Z,19.05
2023-02-04T21:37:52.172Z,21.97
2023-02-04T21:40:57.725Z,21.68
2023-02-04T21:44:04.234Z,22.27
2023-02-04T21:47:09.400Z,28.90
2023-02-04T21:50:15.829Z,21.73
2023-02-04T21:53:23.187Z,22.45
2023-02-04T21:56:27.749Z,23.55
2023-02-04T21:59:32.334Z,25.15
2023-02-04T22:02:38.932Z,20.62
2023-02-04T22:05:45.177Z,25.85
2023-02-04T22:08:44.827Z,26.27
2023-02-04T22:11:30.485Z,28.07
2023-02-04T22:14:23.607Z,25.85
2023-02-04T22:17:15.613Z,27.27
2023-02-04T22:20:24.537Z,25.75
2023-02-04T22:23:29.259Z,24.92
2023-02-04T22:26:34.877Z,30.08
2023-02-04T22:29:40.859Z,27.82
2023-02-04T22:32:45.929Z,24.27
2023-02-04T22:35:52.703Z,28.50
2023-02-04T22:38:58.709Z,29.77
2023-02-04T22:42:04.592Z,33.42
2023-02-04T22:45:11.000Z,30.35
2023-02-04T22:48:17.507Z,27.52
2023-02-04T22:51:22.516Z,30.88
2023-02-04T22:54:28.128Z,33.18
2023-02-04T22:57:33.755Z,33.90
2023-02-04T23:00:39.105Z,27.65
2023-02-04T23:03:44.294Z,27.98
2023-02-04T23:06:51.696Z,29.67
2023-02-04T23:09:58.123Z,29.10
2023-02-04T23:13:04.470Z,28.52
2023-02-04T23:16:10.447Z,29.70
2023-02-04T23:19:17.734Z,27.48
2023-02-04T23:22:23.748Z,27.98
2023-02-04T23:25:29.552Z,32.55
2023-02-04T23:28:35.263Z,28.65
2023-02-04T23:31:40.699Z,29.85
2023-02-04T23:34:47.698Z,32.05
2023-02-04T23:37:54.438Z,35.08
2023-02-04T23:41:00.186Z,29.77
2023-02-04T23:44:07.168Z,29.75
2023-02-04T23:47:12.889Z,32.40
2023-02-04T23:50:19.757Z,29.90
2023-02-04T23:53:26.700Z,31.62
2023-02-04T23:56:33.071Z,29.48
2023-02-04T23:59:39.225Z,34.58
